createdAt,value
2022-09-30T00:01:19.358Z,6.00
2022-09-30T00:03:45.824Z,5.47
2022-09-30T00:06:12.302Z,5.40
2022-09-30T00:08:39.194Z,5.90
2022-09-30T00:11:07.073Z,6.30
2022-09-30T00:13:34.541Z,6.00
2022-09-30T00:16:01.180Z,6.13
2022-09-30T00:18:27.967Z,5.97
2022-09-30T00:20:54.749Z,6.70
2022-09-30T00:23:21.863Z,6.90
2022-09-30T00:25:48.416Z,5.83
2022-09-30T00:28:15.364Z,6.20
2022-09-30T00:30:42.267Z,6.10
2022-09-30T00:33:10.085Z,6.00
2022-09-30T00:35:36.862Z,5.87
2022-09-30T00:38:03.371Z,5.70
2022-09-30T00:40:30.295Z,5.37
2022-09-30T00:42:57.550Z,6.00
2022-09-30T00:45:25.738Z,6.27
2022-09-30T00:47:57.383Z,5.60
2022-09-30T00:50:34.286Z,5.87
2022-09-30T00:53:06.776Z,5.60
2022-09-30T00:55:40.920Z,5.53
2022-09-30T00:58:09.880Z,5.60
2022-09-30T01:00:36.993Z,5.80
2022-09-30T01:03:04.244Z,5.60
2022-09-30T01:05:32.434Z,5.57
2022-09-30T01:08:00.603Z,5.57
2022-09-30T01:10:27.075Z,5.47
2022-09-30T01:12:53.683Z,5.97
2022-09-30T01:15:23.230Z,5.80
2022-09-30T01:18:02.555Z,5.40
2022-09-30T01:20:38.841Z,5.60
2022-09-30T01:23:24.243Z,5.73
2022-09-30T01:25:50.691Z,6.00
2022-09-30T01:28:29.034Z,5.67
2022-09-30T01:31:01.315Z,6.50
2022-09-30T01:33:40.552Z,5.63
2022-09-30T01:36:30.266Z,5.93
2022-09-30T01:39:15.206Z,5.73
2022-09-30T01:41:52.422Z,6.00
2022-09-30T01:44:23.799Z,6.03
2022-09-30T01:46:55.006Z,5.63
2022-09-30T01:49:33.048Z,5.90
2022-09-30T01:52:06.472Z,5.60
2022-09-30T01:54:39.178Z,6.10
2022-09-30T01:57:09.826Z,5.73
2022-09-30T01:59:38.937Z,5.97
2022-09-30T02:02:20.213Z,5.67
2022-09-30T02:04:53.105Z,5.60
2022-09-30T02:07:25.161Z,6.00
2022-09-30T02:09:57.524Z,5.67
2022-09-30T02:12:26.619Z,6.30
2022-09-30T02:14:57.822Z,5.93
2022-09-30T02:17:27.203Z,5.97
2022-09-30T02:19:56.412Z,6.00
2022-09-30T02:22:40.804Z,5.83
2022-09-30T02:25:08.413Z,5.97
2022-09-30T02:27:42.327Z,5.73
2022-09-30T02:30:10.457Z,6.17
2022-09-30T02:32:40.529Z,6.20
2022-09-30T02:35:43.383Z,5.67
2022-09-30T02:38:12.293Z,5.67
2022-09-30T02:40:41.536Z,5.57
2022-09-30T02:43:08.809Z,6.10
2022-09-30T02:45:40.530Z,5.70
2022-09-30T02:48:39.574Z,5.57
2022-09-30T02:51:09.090Z,5.63
2022-09-30T02:53:37.601Z,5.93
2022-09-30T02:56:20.155Z,6.90
2022-09-30T02:58:47.497Z,6.37
2022-09-30T03:01:14.874Z,6.90
2022-09-30T03:03:43.312Z,6.50
2022-09-30T03:06:10.779Z,6.03
2022-09-30T03:08:37.249Z,6.40
2022-09-30T03:11:04.307Z,6.23
2022-09-30T03:13:41.595Z,5.87
2022-09-30T03:16:11.894Z,6.37
2022-09-30T03:18:40.132Z,6.30
2022-09-30T03:21:15.574Z,6.07
2022-09-30T03:24:07.185Z,6.20
2022-09-30T03:27:00.009Z,6.40
2022-09-30T03:29:32.742Z,6.27
2022-09-30T03:32:05.014Z,5.77
2022-09-30T03:34:49.915Z,5.80
2022-09-30T03:37:25.073Z,5.93
2022-09-30T03:39:55.123Z,6.03
2022-09-30T03:42:29.203Z,6.00
2022-09-30T03:45:09.938Z,6.20
2022-09-30T03:47:40.431Z,5.90
2022-09-30T03:50:08.780Z,6.07
2022-09-30T03:52:35.334Z,5.87
2022-09-30T03:55:03.567Z,5.97
2022-09-30T03:57:30.350Z,6.40
2022-09-30T03:59:57.649Z,7.47
2022-09-30T04:02:24.835Z,8.10
2022-09-30T04:04:51.389Z,7.40
2022-09-30T04:07:17.854Z,6.70
2022-09-30T04:09:44.422Z,7.10
2022-09-30T04:12:10.951Z,6.70
2022-09-30T04:14:37.365Z,6.57
2022-09-30T04:17:04.847Z,6.47
2022-09-30T04:19:31.307Z,6.57
2022-09-30T04:21:57.784Z,7.10
2022-09-30T04:24:24.870Z,6.70
2022-09-30T04:26:51.478Z,7.70
2022-09-30T04:29:17.954Z,8.77
2022-09-30T04:31:44.524Z,8.37
2022-09-30T04:34:11.362Z,8.23
2022-09-30T04:36:38.061Z,9.17
2022-09-30T04:39:04.588Z,8.83
2022-09-30T04:41:32.351Z,8.70
2022-09-30T04:43:58.776Z,8.57
2022-09-30T04:46:25.199Z,9.00
2022-09-30T04:48:51.932Z,7.80
2022-09-30T04:51:19.797Z,7.10
2022-09-30T04:53:46.514Z,8.60
2022-09-30T04:56:13.551Z,8.83
2022-09-30T04:58:40.046Z,7.80
2022-09-30T05:01:08.075Z,7.80
2022-09-30T05:03:34.961Z,6.97
2022-09-30T05:06:01.472Z,7.07
2022-09-30T05:08:28.090Z,7.37
2022-09-30T05:10:58.573Z,7.63
2022-09-30T05:13:25.421Z,7.47
2022-09-30T05:15:52.639Z,7.60
2022-09-30T05:18:19.916Z,7.40
2022-09-30T05:20:48.903Z,7.77
2022-09-30T05:23:15.496Z,7.70
2022-09-30T05:25:41.925Z,7.23
2022-09-30T05:28:08.581Z,7.83
2022-09-30T05:30:35.000Z,22.43
2022-09-30T05:33:01.423Z,17.50
2022-09-30T05:35:28.358Z,14.13
2022-09-30T05:37:54.794Z,10.80
2022-09-30T05:40:21.396Z,10.40
2022-09-30T05:42:47.895Z,9.83
2022-09-30T05:45:14.369Z,10.73
2022-09-30T05:47:43.159Z,11.53
2022-09-30T05:50:09.589Z,12.90
2022-09-30T05:52:36.027Z,12.47
2022-09-30T05:55:03.542Z,13.43
2022-09-30T05:57:30.222Z,12.67
2022-09-30T05:59:58.146Z,11.80
2022-09-30T06:02:25.011Z,12.97
2022-09-30T06:04:51.637Z,13.83
2022-09-30T06:07:18.111Z,13.47
2022-09-30T06:09:46.345Z,13.97
2022-09-30T06:12:12.925Z,13.20
2022-09-30T06:14:39.430Z,11.50
2022-09-30T06:17:06.520Z,10.77
2022-09-30T06:19:33.006Z,9.50
2022-09-30T06:21:59.566Z,8.90
2022-09-30T06:24:26.227Z,22.83
2022-09-30T06:26:52.676Z,12.63
2022-09-30T06:29:19.766Z,11.67
2022-09-30T06:31:46.268Z,11.40
2022-09-30T06:34:12.733Z,12.27
2022-09-30T06:36:39.164Z,11.93
2022-09-30T06:39:07.256Z,12.67
2022-09-30T06:41:39.829Z,12.73
2022-09-30T06:44:06.244Z,12.73
2022-09-30T06:46:32.866Z,11.97
2022-09-30T06:49:13.471Z,11.20
2022-09-30T06:51:40.379Z,11.10
2022-09-30T06:54:07.982Z,10.83
2022-09-30T06:56:34.873Z,9.93
2022-09-30T06:59:01.799Z,9.73
2022-09-30T07:01:30.003Z,9.80
2022-09-30T07:03:58.213Z,9.33
2022-09-30T07:06:28.671Z,10.07
2022-09-30T07:08:57.070Z,9.57
2022-09-30T07:11:24.087Z,9.10
2022-09-30T07:13:50.620Z,9.50
2022-09-30T07:16:18.208Z,9.00
2022-09-30T07:18:45.781Z,8.83
2022-09-30T07:21:13.838Z,8.80
2022-09-30T07:23:48.174Z,8.80
2022-09-30T07:26:16.614Z,8.23
2022-09-30T07:28:43.767Z,8.37
2022-09-30T07:31:32.017Z,8.23
2022-09-30T07:33:58.475Z,17.20
2022-09-30T07:36:33.247Z,10.93
2022-09-30T07:39:06.411Z,10.07
2022-09-30T07:41:34.685Z,8.60
2022-09-30T07:44:01.542Z,8.97
2022-09-30T07:46:29.894Z,8.53
2022-09-30T07:48:59.337Z,7.53
2022-09-30T07:51:29.734Z,8.27
2022-09-30T07:53:57.304Z,8.60
2022-09-30T07:56:23.954Z,8.70
2022-09-30T07:58:57.214Z,5.77
2022-09-30T08:01:25.131Z,7.00
2022-09-30T08:03:55.716Z,6.63
2022-09-30T08:06:23.064Z,6.97
2022-09-30T08:08:51.493Z,5.27
2022-09-30T08:11:18.118Z,6.13
2022-09-30T08:13:44.664Z,8.73
2022-09-30T08:16:11.229Z,8.47
2022-09-30T08:18:37.928Z,4.90
2022-09-30T08:21:05.146Z,4.70
2022-09-30T08:23:31.794Z,4.80
2022-09-30T08:26:05.960Z,3.77
2022-09-30T08:28:32.509Z,3.40
2022-09-30T08:31:05.155Z,3.57
2022-09-30T08:33:32.724Z,3.37
2022-09-30T08:36:06.418Z,3.80
2022-09-30T08:38:33.344Z,3.90
2022-09-30T08:41:06.070Z,3.70
2022-09-30T08:43:55.620Z,3.97
2022-09-30T08:46:27.981Z,3.40
2022-09-30T08:49:03.337Z,4.00
2022-09-30T08:51:32.198Z,4.20
2022-09-30T08:54:00.417Z,5.03
2022-09-30T08:56:29.566Z,4.10
2022-09-30T08:59:06.170Z,4.23
2022-09-30T09:01:33.537Z,4.03
2022-09-30T09:04:01.405Z,4.27
2022-09-30T09:06:27.868Z,4.03
2022-09-30T09:09:03.201Z,3.53
2022-09-30T09:11:41.210Z,3.70
2022-09-30T09:14:19.684Z,3.60
2022-09-30T09:16:53.933Z,3.57
2022-09-30T09:19:24.534Z,3.40
2022-09-30T09:21:57.108Z,3.57
2022-09-30T09:24:25.280Z,3.50
2022-09-30T09:26:53.661Z,3.50
2022-09-30T09:29:26.142Z,3.47
2022-09-30T09:31:53.849Z,3.30
2022-09-30T09:34:20.538Z,3.27
2022-09-30T09:37:02.311Z,3.10
2022-09-30T09:39:31.612Z,3.60
2022-09-30T09:42:17.210Z,3.37
2022-09-30T09:45:01.604Z,2.77
2022-09-30T09:47:28.142Z,3.13
2022-09-30T09:50:02.443Z,2.70
2022-09-30T09:52:48.009Z,3.10
2022-09-30T09:55:17.172Z,2.67
2022-09-30T09:57:43.580Z,2.50
2022-09-30T10:00:31.833Z,2.77
2022-09-30T10:03:25.191Z,2.80
2022-09-30T10:06:02.776Z,2.10
2022-09-30T10:08:31.349Z,2.40
2022-09-30T10:11:03.380Z,2.63
2022-09-30T10:13:35.569Z,2.57
2022-09-30T10:16:02.625Z,2.40
2022-09-30T10:18:32.918Z,6.27
2022-09-30T10:21:01.321Z,2.53
2022-09-30T10:23:32.448Z,2.30
2022-09-30T10:26:03.697Z,2.30
2022-09-30T10:28:31.694Z,2.17
2022-09-30T10:31:05.918Z,2.20
2022-09-30T10:33:40.614Z,2.20
2022-09-30T10:36:12.180Z,2.20
2022-09-30T10:38:45.958Z,2.00
2022-09-30T10:41:12.701Z,2.33
2022-09-30T10:43:39.264Z,2.30
2022-09-30T10:48:54.492Z,2.40
2022-09-30T10:51:26.101Z,2.20
2022-09-30T10:53:56.076Z,2.30
2022-09-30T10:56:39.022Z,2.07
2022-09-30T10:59:19.979Z,7.83
2022-09-30T11:01:58.026Z,3.00
2022-09-30T11:04:25.912Z,2.90
2022-09-30T11:06:56.311Z,11.73
2022-09-30T11:09:36.747Z,2.93
2022-09-30T11:12:12.235Z,2.40
2022-09-30T11:14:44.288Z,2.00
2022-09-30T11:17:21.798Z,2.70
2022-09-30T11:20:12.106Z,1.93
2022-09-30T11:22:42.264Z,1.73
2022-09-30T11:25:13.275Z,2.27
2022-09-30T11:27:50.306Z,3.50
2022-09-30T11:30:16.800Z,7.80
2022-09-30T11:33:00.235Z,2.40
2022-09-30T11:35:26.858Z,2.10
2022-09-30T11:38:11.047Z,1.90
2022-09-30T11:40:49.806Z,2.00
2022-09-30T11:43:16.364Z,1.80
2022-09-30T11:45:54.164Z,2.30
2022-09-30T11:48:20.642Z,2.10
2022-09-30T11:50:58.914Z,2.00
2022-09-30T11:53:25.285Z,2.57
2022-09-30T11:55:54.288Z,2.17
2022-09-30T11:58:40.356Z,2.20
2022-09-30T12:01:07.714Z,2.43
2022-09-30T12:03:36.333Z,4.17
2022-09-30T12:06:04.887Z,3.80
2022-09-30T12:08:36.308Z,3.60
2022-09-30T12:11:05.505Z,3.67
2022-09-30T12:13:34.220Z,3.50
2022-09-30T12:16:01.421Z,3.70
2022-09-30T12:18:32.749Z,3.40
2022-09-30T12:21:04.226Z,4.07
2022-09-30T12:23:43.690Z,4.10
2022-09-30T12:26:11.516Z,4.23
2022-09-30T12:29:03.552Z,4.97
2022-09-30T12:31:33.413Z,4.40
2022-09-30T12:34:18.443Z,4.37
2022-09-30T12:36:48.067Z,4.70
2022-09-30T12:39:33.202Z,4.40
2022-09-30T12:42:13.719Z,4.73
2022-09-30T12:44:59.047Z,4.77
2022-09-30T12:47:31.392Z,4.60
2022-09-30T12:49:59.066Z,5.30
2022-09-30T12:52:26.354Z,5.40
2022-09-30T12:54:57.532Z,5.00
2022-09-30T12:57:26.560Z,6.70
2022-09-30T12:59:55.888Z,5.37
2022-09-30T13:02:36.408Z,5.47
2022-09-30T13:05:37.278Z,5.17
2022-09-30T13:08:03.783Z,4.83
2022-09-30T13:10:34.062Z,4.67
2022-09-30T13:13:17.034Z,4.90
2022-09-30T13:15:46.820Z,9.80
2022-09-30T13:18:30.999Z,9.57
2022-09-30T13:21:07.955Z,6.07
2022-09-30T13:23:42.121Z,5.97
2022-09-30T13:26:23.802Z,6.23
2022-09-30T13:28:54.014Z,5.10
2022-09-30T13:31:22.859Z,5.40
2022-09-30T13:34:12.086Z,4.43
2022-09-30T13:36:56.716Z,4.60
2022-09-30T13:39:23.301Z,4.40
2022-09-30T13:41:57.168Z,4.60
2022-09-30T13:44:40.326Z,4.27
2022-09-30T13:47:39.228Z,4.40
2022-09-30T13:50:18.773Z,4.83
2022-09-30T13:52:52.194Z,5.00
2022-09-30T13:55:21.550Z,5.00
2022-09-30T13:58:04.801Z,5.77
2022-09-30T14:00:57.641Z,4.27
2022-09-30T14:03:43.076Z,3.50
2022-09-30T14:06:22.645Z,3.53
2022-09-30T14:09:04.866Z,3.80
2022-09-30T14:11:55.515Z,2.33
2022-09-30T14:14:33.059Z,2.40
2022-09-30T14:17:01.201Z,2.40
2022-09-30T14:19:37.866Z,2.10
2022-09-30T14:22:08.837Z,1.87
2022-09-30T14:24:37.869Z,2.00
2022-09-30T14:27:10.444Z,2.10
2022-09-30T14:29:43.494Z,3.97
2022-09-30T14:32:14.199Z,7.20
2022-09-30T14:34:41.461Z,7.67
2022-09-30T14:37:18.385Z,2.60
2022-09-30T14:39:46.826Z,19.40
2022-09-30T14:42:19.548Z,2.80
2022-09-30T14:44:47.451Z,2.50
2022-09-30T14:47:15.631Z,2.60
2022-09-30T14:49:42.243Z,2.43
2022-09-30T14:52:28.668Z,2.70
2022-09-30T14:54:55.202Z,2.70
2022-09-30T14:57:24.282Z,3.53
2022-09-30T14:59:50.997Z,6.40
2022-09-30T15:02:21.500Z,6.80
2022-09-30T15:04:50.511Z,12.67
2022-09-30T15:07:18.358Z,9.03
2022-09-30T15:09:46.628Z,9.43
2022-09-30T15:12:13.992Z,9.17
2022-09-30T15:14:47.468Z,8.20
2022-09-30T15:17:21.957Z,7.80
2022-09-30T15:19:50.434Z,6.60
2022-09-30T15:22:18.282Z,5.73
2022-09-30T15:24:46.358Z,6.07
2022-09-30T15:27:35.573Z,5.97
2022-09-30T15:30:04.775Z,6.90
2022-09-30T15:32:33.485Z,7.57
2022-09-30T15:35:26.684Z,10.63
2022-09-30T15:37:53.342Z,9.73
2022-09-30T15:40:39.728Z,21.70
2022-09-30T15:43:07.333Z,23.43
2022-09-30T15:45:35.983Z,14.47
2022-09-30T15:48:05.245Z,15.57
2022-09-30T15:50:36.259Z,26.17
2022-09-30T15:53:06.835Z,18.33
2022-09-30T15:55:36.092Z,19.90
2022-09-30T15:58:02.877Z,18.93
2022-09-30T16:00:33.838Z,24.47
2022-09-30T16:03:26.894Z,27.53
2022-09-30T16:05:54.389Z,28.33
2022-09-30T16:08:25.705Z,21.10
2022-09-30T16:10:54.311Z,21.70
2022-09-30T16:13:25.923Z,12.17
2022-09-30T16:15:54.337Z,8.43
2022-09-30T16:18:23.991Z,9.47
2022-09-30T16:21:01.074Z,8.57
2022-09-30T16:23:31.491Z,11.03
2022-09-30T16:26:33.704Z,26.47
2022-09-30T16:29:08.207Z,31.57
2022-09-30T16:31:40.472Z,12.07
2022-09-30T16:34:07.216Z,10.90
2022-09-30T16:36:34.210Z,7.27
2022-09-30T16:39:01.031Z,6.83
2022-09-30T16:41:27.651Z,6.43
2022-09-30T16:43:54.143Z,6.13
2022-09-30T16:46:20.659Z,6.03
2022-09-30T16:48:47.460Z,6.60
2022-09-30T16:51:15.437Z,6.80
2022-09-30T16:53:42.187Z,5.30
2022-09-30T16:56:29.255Z,9.50
2022-09-30T16:58:56.019Z,5.87
2022-09-30T17:01:23.716Z,7.53
2022-09-30T17:03:50.616Z,6.60
2022-09-30T17:06:18.189Z,8.33
2022-09-30T17:08:45.426Z,7.63
2022-09-30T17:11:11.836Z,7.97
2022-09-30T17:13:38.388Z,11.90
2022-09-30T17:16:04.974Z,11.20
2022-09-30T17:18:31.490Z,8.73
2022-09-30T17:21:01.363Z,9.20
2022-09-30T17:23:28.294Z,11.20
2022-09-30T17:25:55.353Z,8.90
2022-09-30T17:28:22.465Z,8.60
2022-09-30T17:30:50.642Z,9.63
2022-09-30T17:33:19.105Z,9.80
2022-09-30T17:35:45.960Z,9.40
2022-09-30T17:38:19.551Z,12.80
2022-09-30T17:41:11.070Z,10.03
2022-09-30T17:43:37.991Z,10.17
2022-09-30T17:46:06.429Z,10.83
2022-09-30T17:48:33.709Z,17.23
2022-09-30T17:51:00.881Z,12.90
2022-09-30T17:53:29.845Z,13.00
2022-09-30T17:56:05.401Z,14.13
2022-09-30T17:58:32.589Z,12.67
2022-09-30T18:00:59.969Z,13.70
2022-09-30T18:03:28.613Z,17.00
2022-09-30T18:06:00.218Z,23.17
2022-09-30T18:08:28.612Z,9.10
2022-09-30T18:10:58.154Z,7.67
2022-09-30T18:13:25.930Z,6.13
2022-09-30T18:15:53.105Z,18.07
2022-09-30T18:18:19.988Z,16.30
2022-09-30T18:20:47.939Z,16.07
2022-09-30T18:23:16.999Z,27.37
2022-09-30T18:25:44.052Z,24.10
2022-09-30T18:28:11.886Z,12.97
2022-09-30T18:30:39.433Z,13.20
2022-09-30T18:33:08.033Z,12.20
2022-09-30T18:35:36.236Z,12.10
2022-09-30T18:38:03.143Z,19.23
2022-09-30T18:40:31.127Z,26.50
2022-09-30T18:42:59.745Z,36.00
2022-09-30T18:45:27.657Z,43.13
2022-09-30T18:47:56.595Z,42.07
2022-09-30T18:50:26.887Z,42.00
2022-09-30T18:52:55.640Z,32.33
2022-09-30T18:55:22.527Z,30.83
2022-09-30T18:57:50.648Z,30.77
2022-09-30T19:00:18.072Z,29.97
2022-09-30T19:02:45.085Z,31.63
2022-09-30T19:05:17.254Z,33.53
2022-09-30T19:07:46.695Z,33.93
2022-09-30T19:10:15.107Z,32.50
2022-09-30T19:12:45.095Z,32.07
2022-09-30T19:15:17.719Z,28.37
2022-09-30T19:17:45.490Z,31.43
2022-09-30T19:20:14.606Z,31.50
2022-09-30T19:22:41.924Z,28.43
2022-09-30T19:25:13.087Z,26.87
2022-09-30T19:27:41.932Z,25.90
2022-09-30T19:30:10.619Z,25.63
2022-09-30T19:32:37.855Z,25.03
2022-09-30T19:35:06.959Z,25.60
2022-09-30T19:37:37.138Z,25.90
2022-09-30T19:40:20.378Z,24.67
2022-09-30T19:42:49.849Z,25.80
2022-09-30T19:45:18.781Z,31.43
2022-09-30T19:47:49.607Z,52.33
2022-09-30T19:50:16.849Z,46.97
2022-09-30T19:52:54.124Z,72.03
2022-09-30T19:55:23.940Z,40.03
2022-09-30T19:57:51.193Z,34.83
2022-09-30T20:00:19.245Z,32.30
2022-09-30T20:02:46.760Z,30.77
2022-09-30T20:05:14.604Z,23.17
2022-09-30T20:07:41.434Z,20.00
2022-09-30T20:10:08.289Z,20.20
2022-09-30T20:12:35.157Z,12.93
2022-09-30T20:15:22.548Z,10.97
2022-09-30T20:17:49.143Z,10.73
2022-09-30T20:20:34.620Z,7.30
2022-09-30T20:23:01.302Z,6.90
2022-09-30T20:25:28.345Z,7.40
2022-09-30T20:27:57.725Z,7.13
2022-09-30T20:30:25.156Z,9.33
2022-09-30T20:32:52.655Z,10.20
2022-09-30T20:35:19.251Z,62.93
2022-09-30T20:37:45.873Z,57.97
2022-09-30T20:40:12.841Z,17.57
2022-09-30T20:42:40.525Z,9.87
2022-09-30T20:45:10.530Z,7.97
2022-09-30T20:47:42.311Z,8.30
2022-09-30T20:50:10.527Z,7.80
2022-09-30T20:52:37.305Z,8.90
2022-09-30T20:55:04.147Z,9.10
2022-09-30T20:57:30.834Z,9.40
2022-09-30T20:59:59.397Z,8.77
2022-09-30T21:02:27.721Z,10.23
2022-09-30T21:04:55.515Z,11.97
2022-09-30T21:07:22.206Z,8.73
2022-09-30T21:09:48.802Z,11.33
2022-09-30T21:12:17.033Z,11.17
2022-09-30T21:14:43.710Z,10.63
2022-09-30T21:17:10.453Z,11.53
2022-09-30T21:19:37.146Z,11.57
2022-09-30T21:22:03.709Z,11.10
2022-09-30T21:24:30.427Z,10.77
2022-09-30T21:26:57.192Z,10.40
2022-09-30T21:29:23.970Z,9.80
2022-09-30T21:31:50.654Z,11.43
2022-09-30T21:34:17.215Z,10.57
2022-09-30T21:36:43.789Z,10.07
2022-09-30T21:39:11.596Z,9.43
2022-09-30T21:41:38.032Z,10.57
2022-09-30T21:44:04.491Z,10.00
2022-09-30T21:46:31.038Z,10.43
2022-09-30T21:49:08.279Z,11.37
2022-09-30T21:51:35.719Z,12.03
2022-09-30T21:54:02.931Z,10.70
2022-09-30T21:56:29.696Z,9.87
2022-09-30T21:58:56.287Z,9.80
2022-09-30T22:01:23.115Z,10.33
2022-09-30T22:03:49.718Z,10.03
2022-09-30T22:06:19.419Z,10.67
2022-09-30T22:08:45.957Z,10.03
2022-09-30T22:11:17.660Z,10.90
2022-09-30T22:13:45.585Z,10.83
2022-09-30T22:16:15.274Z,10.73
2022-09-30T22:18:42.704Z,11.07
2022-09-30T22:21:11.224Z,10.93
2022-09-30T22:23:38.017Z,11.13
2022-09-30T22:26:07.677Z,11.63
2022-09-30T22:28:34.535Z,11.63
2022-09-30T22:31:09.413Z,10.63
2022-09-30T22:33:54.875Z,11.30
2022-09-30T22:36:39.837Z,11.00
2022-09-30T22:39:06.349Z,11.27
2022-09-30T22:41:33.805Z,11.20
2022-09-30T22:44:00.954Z,11.47
2022-09-30T22:46:29.389Z,10.97
2022-09-30T22:48:59.449Z,11.43
2022-09-30T22:51:26.395Z,10.67
2022-09-30T22:53:52.871Z,10.87
2022-09-30T22:56:20.149Z,11.63
2022-09-30T22:58:47.165Z,11.57
2022-09-30T23:01:13.817Z,11.57
2022-09-30T23:03:40.391Z,11.80
2022-09-30T23:06:06.908Z,11.43
2022-09-30T23:08:34.202Z,11.20
2022-09-30T23:11:00.715Z,10.80
2022-09-30T23:13:30.665Z,11.07
2022-09-30T23:15:57.819Z,11.53
2022-09-30T23:18:24.409Z,11.20
2022-09-30T23:20:55.175Z,10.77
2022-09-30T23:23:21.732Z,11.40
2022-09-30T23:25:48.195Z,11.33
2022-09-30T23:28:14.767Z,11.43
2022-09-30T23:30:41.230Z,12.40
2022-09-30T23:33:09.487Z,11.57
2022-09-30T23:35:35.930Z,11.10
2022-09-30T23:38:02.384Z,11.27
2022-09-30T23:40:28.889Z,11.17
2022-09-30T23:42:55.333Z,11.63
2022-09-30T23:45:21.823Z,12.00
2022-09-30T23:47:48.799Z,11.17
2022-09-30T23:50:15.745Z,11.93
2022-09-30T23:52:43.021Z,10.93
2022-09-30T23:55:11.650Z,12.13
2022-09-30T23:57:38.246Z,12.43
